Weather observations for the past three days for
Ormond Beach, Ormond Beach Municipal Airport
Imperial (Metric)
Date Time (edt) Wind (mph) Vis. (mi.) Weather Sky Cond. Temperature (ºF) Relative Humidity Wind Chill (°F) Heat Index (°F) Pressure Precipitation (in)
Air Dwpt 6 hour altimeter (in) sea level (mb) 1 hr 3 hr 6 hr
Max. Min.
30 18:50 NE 12 7.00 Fair CLR 82.4 80.6 94% 94 30.03 0.0
30 17:50 NE 12 7.00 Fair CLR 84.2 80.6 89% 98 30.03 0.0
30 16:50 NE 12 7.00 Fair CLR 86 80.6 84% 102 30.03 0.0
30 15:50 NE 12 G 17 7.00 Fair CLR 87.8 80.6 79% 105 30.05 0.0
30 14:50 NE 12 G 17 7.00 Fair CLR 87.8 80.6 79% 105 30.06 0.0
30 13:50 NE 12 7.00 Fair CLR 87.8 80.6 79% 105 30.08 0.0
30 12:50 NE 12 7.00 Partly Cloudy SCT025 87.8 80.6 79% 105 30.1 0.0
30 11:50 NE 6 7.00 Mostly Cloudy BKN025 86 80.6 84% 102 30.09 0.0
30 09:50 NE 6 7.00 A Few Clouds FEW017 82.4 80.6 94% 94 30.1 0.0
30 08:50 NW 6 7.00 Fair CLR 82.4 80.6 94% 94 30.1 0.0
30 07:50 Calm 7.00 Fair CLR 75.2 75.2 100% 73 30.07 0.0
30 06:50 Calm 7.00 Fair CLR 75.2 75.2 100% 73 30.05 0.0
30 06:15 Calm 7.00 Fair CLR 75.2 75.2 100% 73 30.05 0.0
29 18:50 SE 7 7.00 Partly Cloudy SCT040 82.4 77 84% 91 30.05 0.0
29 17:50 E 8 7.00 Partly Cloudy SCT030 84.2 77 79% 94 30.05 0.0
29 16:50 E 14 7.00 Partly Cloudy SCT030 87.8 82.4 84% 108 30.06 0.0
29 15:50 NE 12 7.00 A Few Clouds FEW030 87.8 80.6 79% 105 30.07 0.0
29 14:50 NE 12 G 18 7.00 A Few Clouds FEW030 87.8 80.6 79% 105 30.06 0.0
29 13:50 NE 12 7.00 A Few Clouds FEW030 86 80.6 84% 102 30.09 0.0
29 12:50 NE 10 7.00 A Few Clouds FEW030 86 80.6 84% 102 30.1 0.0
29 11:50 E 9 7.00 A Few Clouds FEW030 86 80.6 84% 102 30.11 0.0
29 10:50 E 6 7.00 A Few Clouds FEW030 86 80.6 84% 102 30.11 0.0
29 09:50 Calm 7.00 Fair CLR 82.4 80.6 94% 94 30.11 0.0
29 08:50 N 5 7.00 Fair CLR 80.6 80.6 100% 89 30.1 0.0
29 07:50 Calm 7.00 A Few Clouds FEW050 77 77 100% 78 30.09 0.0
29 06:50 NW 3 7.00 A Few Clouds FEW050 73.4 73.4 100% 30.06 0.0
28 18:50 Calm 7.00 Fair CLR 86 77 75% 97 30.01 0.0
28 17:50 N 5 7.00 Fair CLR 89.6 77 67% 103 30.02 0.0
28 16:50 N 6 7.00 A Few Clouds FEW070 86 78.8 79% 99 30.02 0.0
28 15:50 W 6 7.00 Partly Cloudy SCT050 84.2 78.8 84% 96 30.04 0.0
28 14:50 SW 8 5.00 Fog/Mist Showers in Vicinity SCT040 78.8 78.8 100% 83 30.04 0.0
28 13:50 SW 12 7.00 Partly Cloudy SCT035 91.4 77 63% 105 30.05 0.0
28 12:50 S 9 7.00 Partly Cloudy SCT034 91.4 77 63% 105 30.06 0.0
28 11:50 S 9 8.00 A Few Clouds FEW032 89.6 78.8 71% 105 30.07 0.0
28 10:50 SW 6 7.00 A Few Clouds FEW020 87.8 78.8 75% 102 30.08 0.0
28 08:50 SW 8 7.00 Fair CLR 80.6 78.8 94% 88 30.06 0.0
28 07:50 Calm 7.00 Fair CLR 77 77 100% 78 30.05 0.0
28 06:50 SW 3 7.00 Fair CLR 73.4 73.4 100% 30.03 0.0
Date Time (edt) Wind (mph) Vis. (mi.) Weather Sky Cond. Air Dwpt Max. Min. Relative Humidity Wind Chill (°F) Heat Index (°F) altimeter (in) sea level (mb) 1 hr 3 hr 6 hr
6 hour
Temperature (ºF) Pressure Precipitation (in)